Fromveur II — FICH — position and weather

sailwx.info

Track history (hours):
 
Tides and Currents Weather Stations Pressure Air Temp Water Temp Dewpoint Dewpoint Depression Visibility Wind Speed Wind Dir Waves Ship Positions

Fromveur II

Last reported at 2017-Sep-20 21:00 UTC. Time now 2017-Sep-20 22:13 UTC.
Position N 48°23' W 004°29'.

Length 45 m; draft 2.8 m.

Type: Ship. MMSI: 228017700.

Date/timePositionNaut miles runAvg speedWind from/ knotsBaromVisibWave heightAir tempDewpointWater temp
2017-Sep-20 21:00N 48°23' W 004°29'0 0.0
2017-Sep-20 20:30N 48°23' W 004°29'0 0.0
2017-Sep-20 20:00N 48°23' W 004°29'0 0.0
2017-Sep-20 19:30N 48°23' W 004°29'0 0.0
2017-Sep-20 19:00N 48°23' W 004°29'0 0.0
2017-Sep-20 18:30N 48°23' W 004°29'0 0.0
2017-Sep-20 18:00N 48°23' W 004°29'0 0.1
2017-Sep-20 17:30N 48°23' W 004°29'612.7
2017-Sep-20 17:00N 48°20' W 004°38'612.9
2017-Sep-20 16:30N 48°21' W 004°47'3 6.2
2017-Sep-20 16:00N 48°23' W 004°51'4 9.0
2017-Sep-20 15:30N 48°24' W 004°57'611.2
2017-Sep-20 15:00N 48°28' W 005°03'0 0.0
2017-Sep-20 14:01N 48°28' W 005°03'0 0.0
2017-Sep-20 13:30N 48°28' W 005°03'0 0.0
2017-Sep-20 13:00N 48°28' W 005°03'0 0.0
2017-Sep-20 12:30N 48°28' W 005°03'0 0.0
2017-Sep-20 12:00N 48°28' W 005°03'0 0.0
2017-Sep-20 11:23N 48°28' W 005°03'0 0.0
2017-Sep-20 11:00N 48°28' W 005°03'0 0.0
2017-Sep-20 10:31N 48°28' W 005°03'0 0.0
2017-Sep-20 10:00N 48°28' W 005°03'0 0.0
2017-Sep-20 09:27N 48°28' W 005°03'1 3.0
2017-Sep-20 09:00N 48°28' W 005°01'5 9.7
2017-Sep-20 08:30N 48°24' W 004°57'610.1
2017-Sep-20 07:57N 48°23' W 004°49'2 4.5
2017-Sep-20 07:30N 48°22' W 004°47'3 6.5
2017-Sep-20 07:00N 48°20' W 004°43'816.5
2017-Sep-20 06:30N 48°22' W 004°31'2 3.2
2017-Sep-20 06:00N 48°23' W 004°29'0 0.0
2017-Sep-20 05:30N 48°23' W 004°29'0 0.0
2017-Sep-20 05:00N 48°23' W 004°29'0 0.0
2017-Sep-20 04:30N 48°23' W 004°29'0 0.0
2017-Sep-20 04:01N 48°23' W 004°29'0 0.0
2017-Sep-20 03:30N 48°23' W 004°29'0 0.0
2017-Sep-20 03:01N 48°23' W 004°29'0 0.0
2017-Sep-20 02:30N 48°23' W 004°29'0 0.0
2017-Sep-20 02:00N 48°23' W 004°29'0 0.0
2017-Sep-20 01:30N 48°23' W 004°29'0 0.0
2017-Sep-20 01:00N 48°23' W 004°29'0 0.0
2017-Sep-20 00:30N 48°23' W 004°29'0 0.0
2017-Sep-20 00:00N 48°23' W 004°29'0 0.0
2017-Sep-19 23:31N 48°23' W 004°29'0 0.0
2017-Sep-19 23:00N 48°23' W 004°29'0 0.0
2017-Sep-19 22:30N 48°23' W 004°29'0 0.0
2017-Sep-19 22:00N 48°23' W 004°29'0 0.0
2017-Sep-19 21:30N 48°23' W 004°29'0 0.0
2017-Sep-19 21:00N 48°23' W 004°29'0 0.0
2017-Sep-19 20:30N 48°23' W 004°29'0 0.0
2017-Sep-19 20:00N 48°23' W 004°29'0 0.0
2017-Sep-19 19:30N 48°23' W 004°29'0 0.0
2017-Sep-19 19:00N 48°23' W 004°29'0 0.0
2017-Sep-19 18:30N 48°23' W 004°29'0 0.0
2017-Sep-19 18:01N 48°23' W 004°29'0 0.0
2017-Sep-19 17:30N 48°23' W 004°29'0 0.0
2017-Sep-19 17:01N 48°23' W 004°29'0 0.0
2017-Sep-19 16:30N 48°23' W 004°29'0 0.0
2017-Sep-19 16:00N 48°23' W 004°29'0 0.0
2017-Sep-19 15:30N 48°23' W 004°29'0 0.0
2017-Sep-19 15:00N 48°23' W 004°29'0 0.0
2017-Sep-19 14:30N 48°23' W 004°29'0 0.0
2017-Sep-19 14:00N 48°23' W 004°29'0 0.0
2017-Sep-19 13:30N 48°23' W 004°29'0 0.0
2017-Sep-19 13:00N 48°23' W 004°29'0 0.0
2017-Sep-19 12:30N 48°23' W 004°29'0 0.0
2017-Sep-19 12:00N 48°23' W 004°29'0 0.0
2017-Sep-19 11:30N 48°23' W 004°29'0 0.0
2017-Sep-19 11:00N 48°23' W 004°29'0 0.0
2017-Sep-19 10:30N 48°23' W 004°29'0 0.0
2017-Sep-19 10:00N 48°23' W 004°29'0 0.0
2017-Sep-19 09:30N 48°23' W 004°29'0 0.0
2017-Sep-19 09:00N 48°23' W 004°29'0 0.0
2017-Sep-19 08:31N 48°23' W 004°29'0 0.0
2017-Sep-19 08:01N 48°23' W 004°29'0 0.0
2017-Sep-19 07:30N 48°23' W 004°29'0 0.0
2017-Sep-19 07:00N 48°23' W 004°29'0 0.0
2017-Sep-19 06:30N 48°23' W 004°29'0 0.0
2017-Sep-19 06:00N 48°23' W 004°29'0 0.0
2017-Sep-19 05:30N 48°23' W 004°29'0 0.0
2017-Sep-19 05:00N 48°23' W 004°29'0 0.0
2017-Sep-19 04:30N 48°23' W 004°29'0 0.0
2017-Sep-19 04:00N 48°23' W 004°29'0 0.0
2017-Sep-19 03:30N 48°23' W 004°29'0 0.0
2017-Sep-19 03:00N 48°23' W 004°29'0 0.0
2017-Sep-19 02:30N 48°23' W 004°29'0 0.0
2017-Sep-19 02:00N 48°23' W 004°29'0 0.0
2017-Sep-19 01:30N 48°23' W 004°29'0 0.0
2017-Sep-19 01:00N 48°23' W 004°29'0 0.0
2017-Sep-19 00:30N 48°23' W 004°29'0 0.0
2017-Sep-19 00:00N 48°23' W 004°29'0 0.0
2017-Sep-18 23:30N 48°23' W 004°29'0 0.0
2017-Sep-18 23:00N 48°23' W 004°29'0 0.0
2017-Sep-18 22:30N 48°23' W 004°29'0 0.0
2017-Sep-18 22:00N 48°23' W 004°29'0 0.0
2017-Sep-18 21:30N 48°23' W 004°29'0 0.0
2017-Sep-18 21:00N 48°23' W 004°29'0 0.0
2017-Sep-18 20:30N 48°23' W 004°29'0 0.0
2017-Sep-18 20:01N 48°23' W 004°29'0 0.0
2017-Sep-18 19:30N 48°23' W 004°29'0 0.0
2017-Sep-18 19:00N 48°23' W 004°29'0 0.0
2017-Sep-18 18:30N 48°23' W 004°29'0 0.0
2017-Sep-18 18:00N 48°23' W 004°29'2 3.5
2017-Sep-18 17:30N 48°22' W 004°31'713.5
2017-Sep-18 17:00N 48°20' W 004°41'5 9.0
2017-Sep-18 16:31N 48°22' W 004°47'5 9.8
2017-Sep-18 16:00N 48°24' W 004°53'3 5.6
2017-Sep-18 15:30N 48°24' W 004°57'611.1
2017-Sep-18 15:00N 48°28' W 005°03'0 0.0
2017-Sep-18 14:30N 48°28' W 005°03'0 0.0
2017-Sep-18 13:39N 48°28' W 005°03'0 0.0
2017-Sep-18 13:30N 48°28' W 005°03'0 0.0
2017-Sep-18 13:00N 48°28' W 005°03'0 0.0
2017-Sep-18 12:30N 48°28' W 005°03'0 0.0
2017-Sep-18 12:00N 48°28' W 005°03'0 0.0
2017-Sep-18 11:30N 48°28' W 005°03'0 0.0
2017-Sep-18 11:00N 48°28' W 005°03'0 0.0
2017-Sep-18 10:30N 48°28' W 005°03'0 0.0
2017-Sep-18 10:00N 48°28' W 005°03'0 0.0
2017-Sep-18 09:30N 48°28' W 005°03'3 6.5
2017-Sep-18 09:00N 48°27' W 004°59'3 5.3
2017-Sep-18 08:30N 48°24' W 004°57'611.5
2017-Sep-18 08:01N 48°23' W 004°49'2 3.6
2017-Sep-18 07:30N 48°22' W 004°47'4 7.7
2017-Sep-18 07:01N 48°20' W 004°42'816.5
2017-Sep-18 06:30N 48°22' W 004°30'1 2.2
2017-Sep-18 06:01N 48°23' W 004°29'0 0.0
2017-Sep-18 05:30N 48°23' W 004°29'0 0.0
2017-Sep-18 05:00N 48°23' W 004°29'0 0.0
2017-Sep-18 04:31N 48°23' W 004°29'0 0.0
2017-Sep-18 04:00N 48°23' W 004°29'0 0.0
2017-Sep-18 03:30N 48°23' W 004°29'0 0.0
2017-Sep-18 03:00N 48°23' W 004°29'0 0.0
2017-Sep-18 02:30N 48°23' W 004°29'0 0.0
2017-Sep-18 02:00N 48°23' W 004°29'0 0.0
2017-Sep-18 01:30N 48°23' W 004°29'0 0.0
2017-Sep-18 01:00N 48°23' W 004°29'0 0.0
2017-Sep-18 00:31N 48°23' W 004°29'0 0.0
2017-Sep-18 00:00N 48°23' W 004°29'0 0.0
2017-Sep-17 23:30N 48°23' W 004°29'0 0.0
2017-Sep-17 23:01N 48°23' W 004°29'0 0.0
2017-Sep-17 22:30N 48°23' W 004°29'0 0.0
2017-Sep-17 22:00N 48°23' W 004°29'0 0.0
2017-Sep-17 21:30N 48°23' W 004°29'0 0.0
2017-Sep-17 21:00N 48°23' W 004°29'0 0.0
2017-Sep-17 20:30N 48°23' W 004°29'0 0.0
2017-Sep-17 20:00N 48°23' W 004°29'0 0.0
2017-Sep-17 19:29N 48°23' W 004°29'4 7.8
2017-Sep-17 19:01N 48°21' W 004°34'714.3
2017-Sep-17 18:31N 48°19' W 004°44'3 6.1
2017-Sep-17 18:01N 48°22' W 004°48'714.0
2017-Sep-17 17:30N 48°25' W 004°57'3 6.8
2017-Sep-17 17:00N 48°27' W 005°00'2 4.3
2017-Sep-17 16:30N 48°28' W 005°03'815.3
2017-Sep-17 16:00N 48°25' W 004°52'510.4
2017-Sep-17 15:30N 48°22' W 004°47'3 6.5
2017-Sep-17 15:01N 48°23' W 004°51'4 8.4
2017-Sep-17 14:30N 48°24' W 004°57'611.2
2017-Sep-17 14:00N 48°28' W 005°03'0 0.0
2017-Sep-17 13:30N 48°28' W 005°03'0 0.0
2017-Sep-17 13:00N 48°28' W 005°03'0 0.0
2017-Sep-17 12:20N 48°28' W 005°03'0 0.0
2017-Sep-17 12:00N 48°28' W 005°03'0 0.0
2017-Sep-17 11:30N 48°28' W 005°03'0 0.0
2017-Sep-17 11:00N 48°28' W 005°03'0 0.0
2017-Sep-17 10:30N 48°28' W 005°03'0 0.0
2017-Sep-17 09:47N 48°28' W 005°03'0 0.0
2017-Sep-17 09:30N 48°28' W 005°03'0 0.7
2017-Sep-17 09:00N 48°28' W 005°03'5 9.2
2017-Sep-17 08:25N 48°24' W 004°57'511.6
2017-Sep-17 08:00N 48°24' W 004°50'3 5.7
2017-Sep-17 07:28N 48°22' W 004°47'4 8.7
2017-Sep-17 07:00N 48°20' W 004°41'815.7
2017-Sep-17 06:30N 48°22' W 004°30'1 2.2
2017-Sep-17 06:00N 48°23' W 004°29'0 0.0
2017-Sep-17 05:31N 48°23' W 004°29'0 0.0
2017-Sep-17 05:00N 48°23' W 004°29'0 0.0
2017-Sep-17 04:30N 48°23' W 004°29'0 0.0
2017-Sep-17 04:00N 48°23' W 004°29'0 0.0
2017-Sep-17 03:30N 48°23' W 004°29'0 0.0
2017-Sep-17 03:00N 48°23' W 004°29'0 0.0
2017-Sep-17 02:30N 48°23' W 004°29'0 0.0
2017-Sep-17 02:00N 48°23' W 004°29'0 0.0
2017-Sep-17 01:30N 48°23' W 004°29'0 0.0
2017-Sep-17 01:00N 48°23' W 004°29'0 0.0
2017-Sep-17 00:31N 48°23' W 004°29'0 0.0
2017-Sep-17 00:00N 48°23' W 004°29'0 0.0
2017-Sep-16 23:30N 48°23' W 004°29'0 0.0
2017-Sep-16 23:01N 48°23' W 004°29'0 0.0
2017-Sep-16 22:31N 48°23' W 004°29'0 0.0
2017-Sep-16 22:00N 48°23' W 004°29'0 0.0
2017-Sep-16 21:30N 48°23' W 004°29'0 0.0
2017-Sep-16 21:00N 48°23' W 004°29'0 0.0
2017-Sep-16 20:31N 48°23' W 004°29'0 0.0
2017-Sep-16 20:00N 48°23' W 004°29'0 0.0
2017-Sep-16 19:31N 48°23' W 004°29'0 0.0
2017-Sep-16 19:00N 48°23' W 004°29'0 0.0
2017-Sep-16 18:31N 48°23' W 004°29'0 0.0
2017-Sep-16 18:00N 48°23' W 004°29'0 0.1
2017-Sep-16 17:30N 48°23' W 004°29'612.7
2017-Sep-16 17:01N 48°20' W 004°37'713.1
2017-Sep-16 16:30N 48°21' W 004°47'4 7.8
2017-Sep-16 16:00N 48°24' W 004°51'4 8.8
2017-Sep-16 15:30N 48°24' W 004°57'611.4
2017-Sep-16 15:00N 48°28' W 005°03'0 0.0
2017-Sep-16 14:29N 48°28' W 005°03'0 0.0
2017-Sep-16 14:00N 48°28' W 005°03'4 7.8
2017-Sep-16 13:31N 48°26' W 004°58'3 5.5
2017-Sep-16 13:00N 48°24' W 004°55'612.6
2017-Sep-16 12:30N 48°22' W 004°47'0 0.0
2017-Sep-16 11:40N 48°22' W 004°47'0 0.0
2017-Sep-16 11:30N 48°22' W 004°47'0 0.0
2017-Sep-16 11:00N 48°22' W 004°47'611.7
2017-Sep-16 10:30N 48°24' W 004°55'4 7.3
2017-Sep-16 10:01N 48°27' W 004°59'3 6.8
2017-Sep-16 09:30N 48°28' W 005°03'1 2.9
2017-Sep-16 09:00N 48°28' W 005°01'4 8.3
2017-Sep-16 08:28N 48°24' W 004°57'510.5
2017-Sep-16 08:01N 48°24' W 004°50'3 6.2
2017-Sep-16 07:30N 48°22' W 004°47'4 7.8
2017-Sep-16 07:00N 48°20' W 004°42'815.3
2017-Sep-16 06:31N 48°22' W 004°31'2 3.1
2017-Sep-16 06:00N 48°23' W 004°29'0 0.0
2017-Sep-16 05:30N 48°23' W 004°29'0 0.0
2017-Sep-16 05:01N 48°23' W 004°29'0 0.0
2017-Sep-16 04:30N 48°23' W 004°29'0 0.0
2017-Sep-16 04:00N 48°23' W 004°29'0 0.0
2017-Sep-16 03:30N 48°23' W 004°29'0 0.0
2017-Sep-16 03:01N 48°23' W 004°29'0 0.0
2017-Sep-16 02:30N 48°23' W 004°29'0 0.0
2017-Sep-16 02:01N 48°23' W 004°29'0 0.0
2017-Sep-16 01:30N 48°23' W 004°29'0 0.0
2017-Sep-16 01:00N 48°23' W 004°29'0 0.0
2017-Sep-16 00:30N 48°23' W 004°29'0 0.0
2017-Sep-16 00:00N 48°23' W 004°29'0 0.0
2017-Sep-15 23:30N 48°23' W 004°29'0 0.0
2017-Sep-15 23:00N 48°23' W 004°29'0 0.0
2017-Sep-15 22:31N 48°23' W 004°29'0 0.0
2017-Sep-15 22:00N 48°23' W 004°29'0 0.0
2017-Sep-15 21:30N 48°23' W 004°29'0 0.0
2017-Sep-15 21:00N 48°23' W 004°29'0 0.0
2017-Sep-15 20:30N 48°23' W 004°29'4 7.4
2017-Sep-15 20:00N 48°21' W 004°34'815.4
2017-Sep-15 19:30N 48°19' W 004°45'4 7.7
2017-Sep-15 19:00N 48°22' W 004°48'814.4
2017-Sep-15 18:28N 48°27' W 004°58'4 8.1
2017-Sep-15 17:59N 48°28' W 005°03'510.6
2017-Sep-15 17:30N 48°25' W 004°57'3 5.5
2017-Sep-15 17:01N 48°24' W 004°53'5 9.8
2017-Sep-15 16:30N 48°22' W 004°47'0 0.9
2017-Sep-15 16:00N 48°21' W 004°47'714.0
2017-Sep-15 15:30N 48°25' W 004°57'3 5.9
2017-Sep-15 15:01N 48°27' W 004°60'3 5.3
2017-Sep-15 14:30N 48°28' W 005°03'0 0.0
2017-Sep-15 14:00N 48°28' W 005°03'0 0.0
2017-Sep-15 13:17N 48°28' W 005°03'0 0.0
2017-Sep-15 13:00N 48°28' W 005°03'0 0.0
2017-Sep-15 12:30N 48°28' W 005°03'0 0.0
2017-Sep-15 12:00N 48°28' W 005°03'0 0.0
2017-Sep-15 11:30N 48°28' W 005°03'0 0.0
2017-Sep-15 11:00N 48°28' W 005°03'0 0.0
2017-Sep-15 10:30N 48°28' W 005°03'0 0.0
2017-Sep-15 10:00N 48°28' W 005°03'0 0.0
2017-Sep-15 09:30N 48°28' W 005°03'2 3.4
2017-Sep-15 09:01N 48°28' W 005°01'4 8.2
2017-Sep-15 08:31N 48°24' W 004°57'612.4
2017-Sep-15 08:01N 48°22' W 004°48'1 2.6
2017-Sep-15 07:30N 48°22' W 004°47'5 9.5
2017-Sep-15 07:00N 48°20' W 004°40'713.8
2017-Sep-15 06:31N 48°22' W 004°30'1 2.9
2017-Sep-15 06:00N 48°23' W 004°29'0 0.0
2017-Sep-15 05:28N 48°23' W 004°29'0 0.0
2017-Sep-15 04:59N 48°23' W 004°29'0 0.0
2017-Sep-15 04:28N 48°23' W 004°29'0 0.0
2017-Sep-15 03:58N 48°23' W 004°29'0 0.0
2017-Sep-15 03:28N 48°23' W 004°29'0 0.0
2017-Sep-15 02:58N 48°23' W 004°29'0 0.0
2017-Sep-15 02:28N 48°23' W 004°29'0 0.0
2017-Sep-15 01:58N 48°23' W 004°29'0 0.0
2017-Sep-15 01:28N 48°23' W 004°29'0 0.0
2017-Sep-15 00:58N 48°23' W 004°29'0 0.0
2017-Sep-15 00:29N 48°23' W 004°29'0 0.0
2017-Sep-14 23:58N 48°23' W 004°29'0 0.0
2017-Sep-14 23:28N 48°23' W 004°29'0 0.0
2017-Sep-14 22:58N 48°23' W 004°29'0 0.0
2017-Sep-14 22:28N 48°23' W 004°29'0 0.0
2017-Sep-14 21:59N 48°23' W 004°29'0 0.0
2017-Sep-14 21:29N 48°23' W 004°29'0 0.0
2017-Sep-14 20:59N 48°23' W 004°29'0 0.0
2017-Sep-14 20:29N 48°23' W 004°29'0 0.0
2017-Sep-14 19:59N 48°23' W 004°29'0 0.0
2017-Sep-14 19:29N 48°23' W 004°29'0 0.0
2017-Sep-14 18:59N 48°23' W 004°29'0 0.0
2017-Sep-14 18:29N 48°23' W 004°29'0 0.0
2017-Sep-14 17:59N 48°23' W 004°29'1 2.0
2017-Sep-14 17:30N 48°22' W 004°29'815.3
2017-Sep-14 17:01N 48°20' W 004°40'5 8.4
2017-Sep-14 16:27N 48°22' W 004°47'4 9.7
2017-Sep-14 16:00N 48°24' W 004°52'4 7.2
2017-Sep-14 15:30N 48°24' W 004°57'611.0
2017-Sep-14 15:00N 48°28' W 005°03'0 0.0
2017-Sep-14 14:30N 48°28' W 005°03'0 0.0
2017-Sep-14 13:58N 48°28' W 005°03'0 0.0
2017-Sep-14 13:24N 48°28' W 005°03'0 0.0
2017-Sep-14 12:52N 48°28' W 005°03'0 0.0
2017-Sep-14 12:27N 48°28' W 005°03'0 0.0
2017-Sep-14 11:59N 48°28' W 005°03'0 0.0
2017-Sep-14 11:29N 48°28' W 005°03'0 0.0
2017-Sep-14 10:49N 48°28' W 005°03'0 0.0
2017-Sep-14 10:30N 48°28' W 005°03'0 0.0
2017-Sep-14 10:00N 48°28' W 005°03'0 0.0
2017-Sep-14 09:30N 48°28' W 005°03'1 1.8
2017-Sep-14 09:01N 48°28' W 005°02'5 9.9
2017-Sep-14 08:30N 48°24' W 004°57'5 9.6
2017-Sep-14 08:00N 48°23' W 004°51'3 5.6
2017-Sep-14 07:30N 48°22' W 004°47'510.2
2017-Sep-14 07:00N 48°20' W 004°40'713.3
2017-Sep-14 06:30N 48°22' W 004°30'1 2.4
2017-Sep-14 05:58N 48°23' W 004°29'0 0.0
2017-Sep-14 05:29N 48°23' W 004°29'0 0.0
2017-Sep-14 04:59N 48°23' W 004°29'0 0.0
2017-Sep-14 04:29N 48°23' W 004°29'0 0.0
2017-Sep-14 03:59N 48°23' W 004°29'0 0.0
2017-Sep-14 03:29N 48°23' W 004°29'0 0.0
2017-Sep-14 03:00N 48°23' W 004°29'0 0.0
2017-Sep-14 02:23N 48°23' W 004°29'0 0.0
2017-Sep-14 02:00N 48°23' W 004°29'0 0.0
2017-Sep-14 01:29N 48°23' W 004°29'0 0.0
2017-Sep-14 00:59N 48°23' W 004°29'0 0.0
2017-Sep-14 00:30N 48°23' W 004°29'0 0.0
2017-Sep-14 00:00N 48°23' W 004°29'0 0.0
2017-Sep-13 23:30N 48°23' W 004°29'0 0.0
2017-Sep-13 22:59N 48°23' W 004°29'0 0.0
2017-Sep-13 22:30N 48°23' W 004°29'0 0.0
2017-Sep-13 21:58N 48°23' W 004°29'0 0.0
2017-Sep-13 21:29N 48°23' W 004°29'0 0.0
2017-Sep-13 20:59N 48°23' W 004°29'0 0.0
2017-Sep-13 20:29N 48°23' W 004°29'0 0.0
2017-Sep-13 20:01N 48°23' W 004°29'510.7
2017-Sep-13 19:31N 48°20' W 004°36'714.6
2017-Sep-13 19:01N 48°20' W 004°47'510.1
2017-Sep-13 18:30N 48°24' W 004°51'815.7
2017-Sep-13 18:01N 48°28' W 005°01'2 3.2
2017-Sep-13 17:31N 48°27' W 004°60'4 7.2
2017-Sep-13 17:01N 48°25' W 004°56'713.1
2017-Sep-13 16:30N 48°22' W 004°47'1 1.4
2017-Sep-13 16:00N 48°22' W 004°48'713.4
2017-Sep-13 15:30N 48°25' W 004°57'3 5.7
2017-Sep-13 15:00N 48°27' W 004°60'3 5.4
2017-Sep-13 14:30N 48°28' W 005°03'0 0.0
2017-Sep-13 14:00N 48°28' W 005°03'0 0.0
2017-Sep-13 13:30N 48°28' W 005°03'0 0.0
2017-Sep-13 13:00N 48°28' W 005°03'0 0.0
2017-Sep-13 12:30N 48°28' W 005°03'0 0.0
2017-Sep-13 12:00N 48°28' W 005°03'0 0.0
2017-Sep-13 11:30N 48°28' W 005°03'0 0.0
2017-Sep-13 11:00N 48°28' W 005°03'0 0.0
2017-Sep-13 10:30N 48°28' W 005°03'0 0.0
2017-Sep-13 10:00N 48°28' W 005°03'0 0.0
2017-Sep-13 09:30N 48°28' W 005°03'1 2.2
2017-Sep-13 09:01N 48°28' W 005°02'510.0
2017-Sep-13 08:30N 48°24' W 004°57'510.5
2017-Sep-13 08:01N 48°23' W 004°50'2 4.8
2017-Sep-13 07:31N 48°22' W 004°47'510.6
2017-Sep-13 07:01N 48°20' W 004°40'713.1
2017-Sep-13 06:30N 48°22' W 004°30'1 2.4
2017-Sep-13 05:58N 48°23' W 004°29'0 0.0
2017-Sep-13 05:30N 48°23' W 004°29'0 0.0
2017-Sep-13 05:00N 48°23' W 004°29'0 0.0
2017-Sep-13 04:30N 48°23' W 004°29'0 0.0
2017-Sep-13 03:59N 48°23' W 004°29'0 0.0
2017-Sep-13 03:28N 48°23' W 004°29'0 0.0
2017-Sep-13 02:59N 48°23' W 004°29'0 0.0
2017-Sep-13 02:28N 48°23' W 004°29'0 0.0
2017-Sep-13 01:59N 48°23' W 004°29'0 0.0
2017-Sep-13 01:29N 48°23' W 004°29'0 0.0
2017-Sep-13 01:00N 48°23' W 004°29'0 0.0
2017-Sep-13 00:30N 48°23' W 004°29'0 0.0
2017-Sep-13 00:00N 48°23' W 004°29'0 0.0
2017-Sep-12 23:30N 48°23' W 004°29'0 0.0
2017-Sep-12 23:00N 48°23' W 004°29'0 0.0
2017-Sep-12 22:28N 48°23' W 004°29'0 0.0
2017-Sep-12 21:59N 48°23' W 004°29'0 0.0
2017-Sep-12 21:30N 48°23' W 004°29'0 0.0
2017-Sep-12 21:00N 48°23' W 004°29'0 0.0
2017-Sep-12 20:30N 48°23' W 004°29'0 0.0
2017-Sep-12 20:00N 48°23' W 004°29'0 0.0
2017-Sep-12 19:29N 48°23' W 004°29'0 0.0
2017-Sep-12 18:59N 48°23' W 004°29'0 0.0
2017-Sep-12 18:30N 48°23' W 004°29'0 0.0
2017-Sep-12 18:00N 48°23' W 004°29'3 6.6
2017-Sep-12 17:30N 48°21' W 004°33'815.3
2017-Sep-12 17:00N 48°19' W 004°44'3 5.4
2017-Sep-12 16:30N 48°22' W 004°47'5 9.1
2017-Sep-12 16:00N 48°24' W 004°52'3 6.5
2017-Sep-12 15:30N 48°24' W 004°57'510.9
2017-Sep-12 15:00N 48°28' W 005°03'0 0.0
2017-Sep-12 14:30N 48°28' W 005°03'0 0.0
2017-Sep-12 14:00N 48°28' W 005°03'0 0.0
2017-Sep-12 13:30N 48°28' W 005°03'0 0.0
2017-Sep-12 13:00N 48°28' W 005°03'0 0.0
2017-Sep-12 12:30N 48°28' W 005°03'0 0.0
2017-Sep-12 12:00N 48°28' W 005°03'510.9
2017-Sep-12 11:30N 48°25' W 004°57'2 3.6
2017-Sep-12 11:01N 48°24' W 004°54'611.4
2017-Sep-12 10:30N 48°22' W 004°47'2 3.0
2017-Sep-12 10:00N 48°20' W 004°47'613.0
2017-Sep-12 09:31N 48°20' W 004°37'612.5
2017-Sep-12 09:01N 48°23' W 004°29'0 0.0
2017-Sep-12 08:31N 48°23' W 004°29'0 0.0
2017-Sep-12 08:00N 48°23' W 004°29'0 0.0
2017-Sep-12 07:30N 48°23' W 004°29'0 0.0
2017-Sep-12 07:00N 48°23' W 004°29'0 0.0
2017-Sep-11 17:35N 48°23' W 004°29'1 6.3
2017-Sep-11 17:30N 48°22' W 004°29'815.7
2017-Sep-11 17:00N 48°20' W 004°40'5 6.8
2017-Sep-11 16:20N 48°22' W 004°47'310.7
2017-Sep-11 16:00N 48°24' W 004°51'5 9.1
2017-Sep-11 15:30N 48°24' W 004°57'6 5.0
2017-Sep-11 14:23N 48°28' W 005°03'512.5
2017-Sep-11 14:00N 48°27' W 004°56'713.9
2017-Sep-11 13:30N 48°22' W 004°49'1 2.6
2017-Sep-11 13:00N 48°21' W 004°48'713.4
2017-Sep-11 12:30N 48°25' W 004°56'6 7.0
2017-Sep-11 11:42N 48°28' W 005°03'0 0.0
2017-Sep-11 11:21N 48°28' W 005°03'411.8
2017-Sep-11 11:00N 48°26' W 004°58'2 4.1
2017-Sep-11 10:30N 48°25' W 004°56'612.2
2017-Sep-11 10:00N 48°22' W 004°48'2 3.4
2017-Sep-11 09:31N 48°20' W 004°47'613.0
2017-Sep-11 09:01N 48°20' W 004°37'610.2
2017-Sep-11 08:24N 48°23' W 004°29'0 0.0
2017-Sep-11 07:59N 48°23' W 004°29'0 0.0
2017-Sep-11 07:30N 48°23' W 004°29'0 0.0
2017-Sep-11 06:58N 48°23' W 004°29'0 0.0
2017-Sep-11 06:31N 48°23' W 004°29'0 0.0
2017-Sep-11 05:59N 48°23' W 004°29'0 0.0
2017-Sep-11 05:30N 48°23' W 004°29'0 0.0
2017-Sep-11 05:00N 48°23' W 004°29'0 0.0
2017-Sep-11 04:30N 48°23' W 004°29'0 0.0
2017-Sep-11 03:56N 48°23' W 004°29'0 0.0
2017-Sep-11 03:29N 48°23' W 004°29'0 0.0
2017-Sep-11 03:00N 48°23' W 004°29'0 0.0
2017-Sep-11 02:29N 48°23' W 004°29'0 0.0
2017-Sep-11 02:00N 48°23' W 004°29'0 0.0
2017-Sep-11 01:31N 48°23' W 004°29'0 0.0
2017-Sep-11 00:59N 48°23' W 004°29'0 0.0
2017-Sep-11 00:30N 48°23' W 004°29'0 0.0
2017-Sep-11 00:00N 48°23' W 004°29'0 0.0
2017-Sep-10 23:30N 48°23' W 004°29'0 0.0
2017-Sep-10 23:00N 48°23' W 004°29'0 0.0
2017-Sep-10 22:30N 48°23' W 004°29'0 0.0
2017-Sep-10 21:59N 48°23' W 004°29'0 0.0
2017-Sep-10 21:28N 48°23' W 004°29'  
Track history (hours):
 
Tides and Currents Weather Stations Pressure Air Temp Water Temp Dewpoint Dewpoint Depression Visibility Wind Speed Wind Dir Waves Ship Positions

Fromveur II

Last reported at 2017-Sep-20 21:00 UTC. Time now 2017-Sep-20 22:13 UTC.
Position N 48°23' W 004°29'.

Length 45 m; draft 2.8 m.

Type: Ship. MMSI: 228017700.

Date/timePositionNaut miles runAvg speedWind from/ knotsBaromVisibWave heightAir tempDewpointWater temp
2017-Sep-20 21:00N 48°23' W 004°29'0 0.0
2017-Sep-20 20:30N 48°23' W 004°29'0 0.0
2017-Sep-20 20:00N 48°23' W 004°29'0 0.0
2017-Sep-20 19:30N 48°23' W 004°29'0 0.0
2017-Sep-20 19:00N 48°23' W 004°29'0 0.0
2017-Sep-20 18:30N 48°23' W 004°29'0 0.0
2017-Sep-20 18:00N 48°23' W 004°29'0 0.1
2017-Sep-20 17:30N 48°23' W 004°29'612.7
2017-Sep-20 17:00N 48°20' W 004°38'612.9
2017-Sep-20 16:30N 48°21' W 004°47'3 6.2
2017-Sep-20 16:00N 48°23' W 004°51'4 9.0
2017-Sep-20 15:30N 48°24' W 004°57'611.2
2017-Sep-20 15:00N 48°28' W 005°03'0 0.0
2017-Sep-20 14:01N 48°28' W 005°03'0 0.0
2017-Sep-20 13:30N 48°28' W 005°03'0 0.0
2017-Sep-20 13:00N 48°28' W 005°03'0 0.0
2017-Sep-20 12:30N 48°28' W 005°03'0 0.0
2017-Sep-20 12:00N 48°28' W 005°03'0 0.0
2017-Sep-20 11:23N 48°28' W 005°03'0 0.0
2017-Sep-20 11:00N 48°28' W 005°03'0 0.0
2017-Sep-20 10:31N 48°28' W 005°03'0 0.0
2017-Sep-20 10:00N 48°28' W 005°03'0 0.0
2017-Sep-20 09:27N 48°28' W 005°03'1 3.0
2017-Sep-20 09:00N 48°28' W 005°01'5 9.7
2017-Sep-20 08:30N 48°24' W 004°57'610.1
2017-Sep-20 07:57N 48°23' W 004°49'2 4.5
2017-Sep-20 07:30N 48°22' W 004°47'3 6.5
2017-Sep-20 07:00N 48°20' W 004°43'816.5
2017-Sep-20 06:30N 48°22' W 004°31'2 3.2
2017-Sep-20 06:00N 48°23' W 004°29'0 0.0
2017-Sep-20 05:30N 48°23' W 004°29'0 0.0
2017-Sep-20 05:00N 48°23' W 004°29'0 0.0
2017-Sep-20 04:30N 48°23' W 004°29'0 0.0
2017-Sep-20 04:01N 48°23' W 004°29'0 0.0
2017-Sep-20 03:30N 48°23' W 004°29'0 0.0
2017-Sep-20 03:01N 48°23' W 004°29'0 0.0
2017-Sep-20 02:30N 48°23' W 004°29'0 0.0
2017-Sep-20 02:00N 48°23' W 004°29'0 0.0
2017-Sep-20 01:30N 48°23' W 004°29'0 0.0
2017-Sep-20 01:00N 48°23' W 004°29'0 0.0
2017-Sep-20 00:30N 48°23' W 004°29'0 0.0
2017-Sep-20 00:00N 48°23' W 004°29'0 0.0
2017-Sep-19 23:31N 48°23' W 004°29'0 0.0
2017-Sep-19 23:00N 48°23' W 004°29'0 0.0
2017-Sep-19 22:30N 48°23' W 004°29'0 0.0
2017-Sep-19 22:00N 48°23' W 004°29'0 0.0
2017-Sep-19 21:30N 48°23' W 004°29'0 0.0
2017-Sep-19 21:00N 48°23' W 004°29'0 0.0
2017-Sep-19 20:30N 48°23' W 004°29'0 0.0
2017-Sep-19 20:00N 48°23' W 004°29'0 0.0
2017-Sep-19 19:30N 48°23' W 004°29'0 0.0
2017-Sep-19 19:00N 48°23' W 004°29'0 0.0
2017-Sep-19 18:30N 48°23' W 004°29'0 0.0
2017-Sep-19 18:01N 48°23' W 004°29'0 0.0
2017-Sep-19 17:30N 48°23' W 004°29'0 0.0
2017-Sep-19 17:01N 48°23' W 004°29'0 0.0
2017-Sep-19 16:30N 48°23' W 004°29'0 0.0
2017-Sep-19 16:00N 48°23' W 004°29'0 0.0
2017-Sep-19 15:30N 48°23' W 004°29'0 0.0
2017-Sep-19 15:00N 48°23' W 004°29'0 0.0
2017-Sep-19 14:30N 48°23' W 004°29'0 0.0
2017-Sep-19 14:00N 48°23' W 004°29'0 0.0
2017-Sep-19 13:30N 48°23' W 004°29'0 0.0
2017-Sep-19 13:00N 48°23' W 004°29'0 0.0
2017-Sep-19 12:30N 48°23' W 004°29'0 0.0
2017-Sep-19 12:00N 48°23' W 004°29'0 0.0
2017-Sep-19 11:30N 48°23' W 004°29'0 0.0
2017-Sep-19 11:00N 48°23' W 004°29'0 0.0
2017-Sep-19 10:30N 48°23' W 004°29'0 0.0
2017-Sep-19 10:00N 48°23' W 004°29'0 0.0
2017-Sep-19 09:30N 48°23' W 004°29'0 0.0
2017-Sep-19 09:00N 48°23' W 004°29'0 0.0
2017-Sep-19 08:31N 48°23' W 004°29'0 0.0
2017-Sep-19 08:01N 48°23' W 004°29'0 0.0
2017-Sep-19 07:30N 48°23' W 004°29'0 0.0
2017-Sep-19 07:00N 48°23' W 004°29'0 0.0
2017-Sep-19 06:30N 48°23' W 004°29'0 0.0
2017-Sep-19 06:00N 48°23' W 004°29'0 0.0
2017-Sep-19 05:30N 48°23' W 004°29'0 0.0
2017-Sep-19 05:00N 48°23' W 004°29'0 0.0
2017-Sep-19 04:30N 48°23' W 004°29'0 0.0
2017-Sep-19 04:00N 48°23' W 004°29'0 0.0
2017-Sep-19 03:30N 48°23' W 004°29'0 0.0
2017-Sep-19 03:00N 48°23' W 004°29'0 0.0
2017-Sep-19 02:30N 48°23' W 004°29'0 0.0
2017-Sep-19 02:00N 48°23' W 004°29'0 0.0
2017-Sep-19 01:30N 48°23' W 004°29'0 0.0
2017-Sep-19 01:00N 48°23' W 004°29'0 0.0
2017-Sep-19 00:30N 48°23' W 004°29'0 0.0
2017-Sep-19 00:00N 48°23' W 004°29'0 0.0
2017-Sep-18 23:30N 48°23' W 004°29'0 0.0
2017-Sep-18 23:00N 48°23' W 004°29'0 0.0
2017-Sep-18 22:30N 48°23' W 004°29'0 0.0
2017-Sep-18 22:00N 48°23' W 004°29'0 0.0
2017-Sep-18 21:30N 48°23' W 004°29'0 0.0
2017-Sep-18 21:00N 48°23' W 004°29'0 0.0
2017-Sep-18 20:30N 48°23' W 004°29'0 0.0
2017-Sep-18 20:01N 48°23' W 004°29'0 0.0
2017-Sep-18 19:30N 48°23' W 004°29'0 0.0
2017-Sep-18 19:00N 48°23' W 004°29'0 0.0
2017-Sep-18 18:30N 48°23' W 004°29'0 0.0
2017-Sep-18 18:00N 48°23' W 004°29'2 3.5
2017-Sep-18 17:30N 48°22' W 004°31'713.5
2017-Sep-18 17:00N 48°20' W 004°41'5 9.0
2017-Sep-18 16:31N 48°22' W 004°47'5 9.8
2017-Sep-18 16:00N 48°24' W 004°53'3 5.6
2017-Sep-18 15:30N 48°24' W 004°57'611.1
2017-Sep-18 15:00N 48°28' W 005°03'0 0.0
2017-Sep-18 14:30N 48°28' W 005°03'0 0.0
2017-Sep-18 13:39N 48°28' W 005°03'0 0.0
2017-Sep-18 13:30N 48°28' W 005°03'0 0.0
2017-Sep-18 13:00N 48°28' W 005°03'0 0.0
2017-Sep-18 12:30N 48°28' W 005°03'0 0.0
2017-Sep-18 12:00N 48°28' W 005°03'0 0.0
2017-Sep-18 11:30N 48°28' W 005°03'0 0.0
2017-Sep-18 11:00N 48°28' W 005°03'0 0.0
2017-Sep-18 10:30N 48°28' W 005°03'0 0.0
2017-Sep-18 10:00N 48°28' W 005°03'0 0.0
2017-Sep-18 09:30N 48°28' W 005°03'3 6.5
2017-Sep-18 09:00N 48°27' W 004°59'3 5.3
2017-Sep-18 08:30N 48°24' W 004°57'611.5
2017-Sep-18 08:01N 48°23' W 004°49'2 3.6
2017-Sep-18 07:30N 48°22' W 004°47'4 7.7
2017-Sep-18 07:01N 48°20' W 004°42'816.5
2017-Sep-18 06:30N 48°22' W 004°30'1 2.2
2017-Sep-18 06:01N 48°23' W 004°29'0 0.0
2017-Sep-18 05:30N 48°23' W 004°29'0 0.0
2017-Sep-18 05:00N 48°23' W 004°29'0 0.0
2017-Sep-18 04:31N 48°23' W 004°29'0 0.0
2017-Sep-18 04:00N 48°23' W 004°29'0 0.0
2017-Sep-18 03:30N 48°23' W 004°29'0 0.0
2017-Sep-18 03:00N 48°23' W 004°29'0 0.0
2017-Sep-18 02:30N 48°23' W 004°29'0 0.0
2017-Sep-18 02:00N 48°23' W 004°29'0 0.0
2017-Sep-18 01:30N 48°23' W 004°29'0 0.0
2017-Sep-18 01:00N 48°23' W 004°29'0 0.0
2017-Sep-18 00:31N 48°23' W 004°29'0 0.0
2017-Sep-18 00:00N 48°23' W 004°29'0 0.0
2017-Sep-17 23:30N 48°23' W 004°29'0 0.0
2017-Sep-17 23:01N 48°23' W 004°29'0 0.0
2017-Sep-17 22:30N 48°23' W 004°29'0 0.0
2017-Sep-17 22:00N 48°23' W 004°29'0 0.0
2017-Sep-17 21:30N 48°23' W 004°29'0 0.0
2017-Sep-17 21:00N 48°23' W 004°29'0 0.0
2017-Sep-17 20:30N 48°23' W 004°29'0 0.0
2017-Sep-17 20:00N 48°23' W 004°29'0 0.0
2017-Sep-17 19:29N 48°23' W 004°29'4 7.8
2017-Sep-17 19:01N 48°21' W 004°34'714.3
2017-Sep-17 18:31N 48°19' W 004°44'3 6.1
2017-Sep-17 18:01N 48°22' W 004°48'714.0
2017-Sep-17 17:30N 48°25' W 004°57'3 6.8
2017-Sep-17 17:00N 48°27' W 005°00'2 4.3
2017-Sep-17 16:30N 48°28' W 005°03'815.3
2017-Sep-17 16:00N 48°25' W 004°52'510.4
2017-Sep-17 15:30N 48°22' W 004°47'3 6.5
2017-Sep-17 15:01N 48°23' W 004°51'4 8.4
2017-Sep-17 14:30N 48°24' W 004°57'611.2
2017-Sep-17 14:00N 48°28' W 005°03'0 0.0
2017-Sep-17 13:30N 48°28' W 005°03'0 0.0
2017-Sep-17 13:00N 48°28' W 005°03'0 0.0
2017-Sep-17 12:20N 48°28' W 005°03'0 0.0
2017-Sep-17 12:00N 48°28' W 005°03'0 0.0
2017-Sep-17 11:30N 48°28' W 005°03'0 0.0
2017-Sep-17 11:00N 48°28' W 005°03'0 0.0
2017-Sep-17 10:30N 48°28' W 005°03'0 0.0
2017-Sep-17 09:47N 48°28' W 005°03'0 0.0
2017-Sep-17 09:30N 48°28' W 005°03'0 0.7
2017-Sep-17 09:00N 48°28' W 005°03'5 9.2
2017-Sep-17 08:25N 48°24' W 004°57'511.6
2017-Sep-17 08:00N 48°24' W 004°50'3 5.7
2017-Sep-17 07:28N 48°22' W 004°47'4 8.7
2017-Sep-17 07:00N 48°20' W 004°41'815.7
2017-Sep-17 06:30N 48°22' W 004°30'1 2.2
2017-Sep-17 06:00N 48°23' W 004°29'0 0.0
2017-Sep-17 05:31N 48°23' W 004°29'0 0.0
2017-Sep-17 05:00N 48°23' W 004°29'0 0.0
2017-Sep-17 04:30N 48°23' W 004°29'0 0.0
2017-Sep-17 04:00N 48°23' W 004°29'0 0.0
2017-Sep-17 03:30N 48°23' W 004°29'0 0.0
2017-Sep-17 03:00N 48°23' W 004°29'0 0.0
2017-Sep-17 02:30N 48°23' W 004°29'0 0.0
2017-Sep-17 02:00N 48°23' W 004°29'0 0.0
2017-Sep-17 01:30N 48°23' W 004°29'0 0.0
2017-Sep-17 01:00N 48°23' W 004°29'0 0.0
2017-Sep-17 00:31N 48°23' W 004°29'0 0.0
2017-Sep-17 00:00N 48°23' W 004°29'0 0.0
2017-Sep-16 23:30N 48°23' W 004°29'0 0.0
2017-Sep-16 23:01N 48°23' W 004°29'0 0.0
2017-Sep-16 22:31N 48°23' W 004°29'0 0.0
2017-Sep-16 22:00N 48°23' W 004°29'0 0.0
2017-Sep-16 21:30N 48°23' W 004°29'0 0.0
2017-Sep-16 21:00N 48°23' W 004°29'0 0.0
2017-Sep-16 20:31N 48°23' W 004°29'0 0.0
2017-Sep-16 20:00N 48°23' W 004°29'0 0.0
2017-Sep-16 19:31N 48°23' W 004°29'0 0.0
2017-Sep-16 19:00N 48°23' W 004°29'0 0.0
2017-Sep-16 18:31N 48°23' W 004°29'0 0.0
2017-Sep-16 18:00N 48°23' W 004°29'0 0.1
2017-Sep-16 17:30N 48°23' W 004°29'612.7
2017-Sep-16 17:01N 48°20' W 004°37'713.1
2017-Sep-16 16:30N 48°21' W 004°47'4 7.8
2017-Sep-16 16:00N 48°24' W 004°51'4 8.8
2017-Sep-16 15:30N 48°24' W 004°57'611.4
2017-Sep-16 15:00N 48°28' W 005°03'0 0.0
2017-Sep-16 14:29N 48°28' W 005°03'0 0.0
2017-Sep-16 14:00N 48°28' W 005°03'4 7.8
2017-Sep-16 13:31N 48°26' W 004°58'3 5.5
2017-Sep-16 13:00N 48°24' W 004°55'612.6
2017-Sep-16 12:30N 48°22' W 004°47'0 0.0
2017-Sep-16 11:40N 48°22' W 004°47'0 0.0
2017-Sep-16 11:30N 48°22' W 004°47'0 0.0
2017-Sep-16 11:00N 48°22' W 004°47'611.7
2017-Sep-16 10:30N 48°24' W 004°55'4 7.3
2017-Sep-16 10:01N 48°27' W 004°59'3 6.8
2017-Sep-16 09:30N 48°28' W 005°03'1 2.9
2017-Sep-16 09:00N 48°28' W 005°01'4 8.3
2017-Sep-16 08:28N 48°24' W 004°57'510.5
2017-Sep-16 08:01N 48°24' W 004°50'3 6.2
2017-Sep-16 07:30N 48°22' W 004°47'4 7.8
2017-Sep-16 07:00N 48°20' W 004°42'815.3
2017-Sep-16 06:31N 48°22' W 004°31'2 3.1
2017-Sep-16 06:00N 48°23' W 004°29'0 0.0
2017-Sep-16 05:30N 48°23' W 004°29'0 0.0
2017-Sep-16 05:01N 48°23' W 004°29'0 0.0
2017-Sep-16 04:30N 48°23' W 004°29'0 0.0
2017-Sep-16 04:00N 48°23' W 004°29'0 0.0
2017-Sep-16 03:30N 48°23' W 004°29'0 0.0
2017-Sep-16 03:01N 48°23' W 004°29'0 0.0
2017-Sep-16 02:30N 48°23' W 004°29'0 0.0
2017-Sep-16 02:01N 48°23' W 004°29'0 0.0
2017-Sep-16 01:30N 48°23' W 004°29'0 0.0
2017-Sep-16 01:00N 48°23' W 004°29'0 0.0
2017-Sep-16 00:30N 48°23' W 004°29'0 0.0
2017-Sep-16 00:00N 48°23' W 004°29'0 0.0
2017-Sep-15 23:30N 48°23' W 004°29'0 0.0
2017-Sep-15 23:00N 48°23' W 004°29'0 0.0
2017-Sep-15 22:31N 48°23' W 004°29'0 0.0
2017-Sep-15 22:00N 48°23' W 004°29'0 0.0
2017-Sep-15 21:30N 48°23' W 004°29'0 0.0
2017-Sep-15 21:00N 48°23' W 004°29'0 0.0
2017-Sep-15 20:30N 48°23' W 004°29'4 7.4
2017-Sep-15 20:00N 48°21' W 004°34'815.4
2017-Sep-15 19:30N 48°19' W 004°45'4 7.7
2017-Sep-15 19:00N 48°22' W 004°48'814.4
2017-Sep-15 18:28N 48°27' W 004°58'4 8.1
2017-Sep-15 17:59N 48°28' W 005°03'510.6
2017-Sep-15 17:30N 48°25' W 004°57'3 5.5
2017-Sep-15 17:01N 48°24' W 004°53'5 9.8
2017-Sep-15 16:30N 48°22' W 004°47'0 0.9
2017-Sep-15 16:00N 48°21' W 004°47'714.0
2017-Sep-15 15:30N 48°25' W 004°57'3 5.9
2017-Sep-15 15:01N 48°27' W 004°60'3 5.3
2017-Sep-15 14:30N 48°28' W 005°03'0 0.0
2017-Sep-15 14:00N 48°28' W 005°03'0 0.0
2017-Sep-15 13:17N 48°28' W 005°03'0 0.0
2017-Sep-15 13:00N 48°28' W 005°03'0 0.0
2017-Sep-15 12:30N 48°28' W 005°03'0 0.0
2017-Sep-15 12:00N 48°28' W 005°03'0 0.0
2017-Sep-15 11:30N 48°28' W 005°03'0 0.0
2017-Sep-15 11:00N 48°28' W 005°03'0 0.0
2017-Sep-15 10:30N 48°28' W 005°03'0 0.0
2017-Sep-15 10:00N 48°28' W 005°03'0 0.0
2017-Sep-15 09:30N 48°28' W 005°03'2 3.4
2017-Sep-15 09:01N 48°28' W 005°01'4 8.2
2017-Sep-15 08:31N 48°24' W 004°57'612.4
2017-Sep-15 08:01N 48°22' W 004°48'1 2.6
2017-Sep-15 07:30N 48°22' W 004°47'5 9.5
2017-Sep-15 07:00N 48°20' W 004°40'713.8
2017-Sep-15 06:31N 48°22' W 004°30'1 2.9
2017-Sep-15 06:00N 48°23' W 004°29'0 0.0
2017-Sep-15 05:28N 48°23' W 004°29'0 0.0
2017-Sep-15 04:59N 48°23' W 004°29'0 0.0
2017-Sep-15 04:28N 48°23' W 004°29'0 0.0
2017-Sep-15 03:58N 48°23' W 004°29'0 0.0
2017-Sep-15 03:28N 48°23' W 004°29'0 0.0
2017-Sep-15 02:58N 48°23' W 004°29'0 0.0
2017-Sep-15 02:28N 48°23' W 004°29'0 0.0
2017-Sep-15 01:58N 48°23' W 004°29'0 0.0
2017-Sep-15 01:28N 48°23' W 004°29'0 0.0
2017-Sep-15 00:58N 48°23' W 004°29'0 0.0
2017-Sep-15 00:29N 48°23' W 004°29'0 0.0
2017-Sep-14 23:58N 48°23' W 004°29'0 0.0
2017-Sep-14 23:28N 48°23' W 004°29'0 0.0
2017-Sep-14 22:58N 48°23' W 004°29'0 0.0
2017-Sep-14 22:28N 48°23' W 004°29'0 0.0
2017-Sep-14 21:59N 48°23' W 004°29'0 0.0
2017-Sep-14 21:29N 48°23' W 004°29'0 0.0
2017-Sep-14 20:59N 48°23' W 004°29'0 0.0
2017-Sep-14 20:29N 48°23' W 004°29'0 0.0
2017-Sep-14 19:59N 48°23' W 004°29'0 0.0
2017-Sep-14 19:29N 48°23' W 004°29'0 0.0
2017-Sep-14 18:59N 48°23' W 004°29'0 0.0
2017-Sep-14 18:29N 48°23' W 004°29'0 0.0
2017-Sep-14 17:59N 48°23' W 004°29'1 2.0
2017-Sep-14 17:30N 48°22' W 004°29'815.3
2017-Sep-14 17:01N 48°20' W 004°40'5 8.4
2017-Sep-14 16:27N 48°22' W 004°47'4 9.7
2017-Sep-14 16:00N 48°24' W 004°52'4 7.2
2017-Sep-14 15:30N 48°24' W 004°57'611.0
2017-Sep-14 15:00N 48°28' W 005°03'0 0.0
2017-Sep-14 14:30N 48°28' W 005°03'0 0.0
2017-Sep-14 13:58N 48°28' W 005°03'0 0.0
2017-Sep-14 13:24N 48°28' W 005°03'0 0.0
2017-Sep-14 12:52N 48°28' W 005°03'0 0.0
2017-Sep-14 12:27N 48°28' W 005°03'0 0.0
2017-Sep-14 11:59N 48°28' W 005°03'0 0.0
2017-Sep-14 11:29N 48°28' W 005°03'0 0.0
2017-Sep-14 10:49N 48°28' W 005°03'0 0.0
2017-Sep-14 10:30N 48°28' W 005°03'0 0.0
2017-Sep-14 10:00N 48°28' W 005°03'0 0.0
2017-Sep-14 09:30N 48°28' W 005°03'1 1.8
2017-Sep-14 09:01N 48°28' W 005°02'5 9.9
2017-Sep-14 08:30N 48°24' W 004°57'5 9.6
2017-Sep-14 08:00N 48°23' W 004°51'3 5.6
2017-Sep-14 07:30N 48°22' W 004°47'510.2
2017-Sep-14 07:00N 48°20' W 004°40'713.3
2017-Sep-14 06:30N 48°22' W 004°30'1 2.4
2017-Sep-14 05:58N 48°23' W 004°29'0 0.0
2017-Sep-14 05:29N 48°23' W 004°29'0 0.0
2017-Sep-14 04:59N 48°23' W 004°29'0 0.0
2017-Sep-14 04:29N 48°23' W 004°29'0 0.0
2017-Sep-14 03:59N 48°23' W 004°29'0 0.0
2017-Sep-14 03:29N 48°23' W 004°29'0 0.0
2017-Sep-14 03:00N 48°23' W 004°29'0 0.0
2017-Sep-14 02:23N 48°23' W 004°29'0 0.0
2017-Sep-14 02:00N 48°23' W 004°29'0 0.0
2017-Sep-14 01:29N 48°23' W 004°29'0 0.0
2017-Sep-14 00:59N 48°23' W 004°29'0 0.0
2017-Sep-14 00:30N 48°23' W 004°29'0 0.0
2017-Sep-14 00:00N 48°23' W 004°29'0 0.0
2017-Sep-13 23:30N 48°23' W 004°29'0 0.0
2017-Sep-13 22:59N 48°23' W 004°29'0 0.0
2017-Sep-13 22:30N 48°23' W 004°29'0 0.0
2017-Sep-13 21:58N 48°23' W 004°29'0 0.0
2017-Sep-13 21:29N 48°23' W 004°29'0 0.0
2017-Sep-13 20:59N 48°23' W 004°29'0 0.0
2017-Sep-13 20:29N 48°23' W 004°29'0 0.0
2017-Sep-13 20:01N 48°23' W 004°29'510.7
2017-Sep-13 19:31N 48°20' W 004°36'714.6
2017-Sep-13 19:01N 48°20' W 004°47'510.1
2017-Sep-13 18:30N 48°24' W 004°51'815.7
2017-Sep-13 18:01N 48°28' W 005°01'2 3.2
2017-Sep-13 17:31N 48°27' W 004°60'4 7.2
2017-Sep-13 17:01N 48°25' W 004°56'713.1
2017-Sep-13 16:30N 48°22' W 004°47'1 1.4
2017-Sep-13 16:00N 48°22' W 004°48'713.4
2017-Sep-13 15:30N 48°25' W 004°57'3 5.7
2017-Sep-13 15:00N 48°27' W 004°60'3 5.4
2017-Sep-13 14:30N 48°28' W 005°03'0 0.0
2017-Sep-13 14:00N 48°28' W 005°03'0 0.0
2017-Sep-13 13:30N 48°28' W 005°03'0 0.0
2017-Sep-13 13:00N 48°28' W 005°03'0 0.0
2017-Sep-13 12:30N 48°28' W 005°03'0 0.0
2017-Sep-13 12:00N 48°28' W 005°03'0 0.0
2017-Sep-13 11:30N 48°28' W 005°03'0 0.0
2017-Sep-13 11:00N 48°28' W 005°03'0 0.0
2017-Sep-13 10:30N 48°28' W 005°03'0 0.0
2017-Sep-13 10:00N 48°28' W 005°03'0 0.0
2017-Sep-13 09:30N 48°28' W 005°03'1 2.2
2017-Sep-13 09:01N 48°28' W 005°02'510.0
2017-Sep-13 08:30N 48°24' W 004°57'510.5
2017-Sep-13 08:01N 48°23' W 004°50'2 4.8
2017-Sep-13 07:31N 48°22' W 004°47'510.6
2017-Sep-13 07:01N 48°20' W 004°40'713.1
2017-Sep-13 06:30N 48°22' W 004°30'1 2.4
2017-Sep-13 05:58N 48°23' W 004°29'0 0.0
2017-Sep-13 05:30N 48°23' W 004°29'0 0.0
2017-Sep-13 05:00N 48°23' W 004°29'0 0.0
2017-Sep-13 04:30N 48°23' W 004°29'0 0.0
2017-Sep-13 03:59N 48°23' W 004°29'0 0.0
2017-Sep-13 03:28N 48°23' W 004°29'0 0.0
2017-Sep-13 02:59N 48°23' W 004°29'0 0.0
2017-Sep-13 02:28N 48°23' W 004°29'0 0.0
2017-Sep-13 01:59N 48°23' W 004°29'0 0.0
2017-Sep-13 01:29N 48°23' W 004°29'0 0.0
2017-Sep-13 01:00N 48°23' W 004°29'0 0.0
2017-Sep-13 00:30N 48°23' W 004°29'0 0.0
2017-Sep-13 00:00N 48°23' W 004°29'0 0.0
2017-Sep-12 23:30N 48°23' W 004°29'0 0.0
2017-Sep-12 23:00N 48°23' W 004°29'0 0.0
2017-Sep-12 22:28N 48°23' W 004°29'0 0.0
2017-Sep-12 21:59N 48°23' W 004°29'0 0.0
2017-Sep-12 21:30N 48°23' W 004°29'0 0.0
2017-Sep-12 21:00N 48°23' W 004°29'0 0.0
2017-Sep-12 20:30N 48°23' W 004°29'0 0.0
2017-Sep-12 20:00N 48°23' W 004°29'0 0.0
2017-Sep-12 19:29N 48°23' W 004°29'0 0.0
2017-Sep-12 18:59N 48°23' W 004°29'0 0.0
2017-Sep-12 18:30N 48°23' W 004°29'0 0.0
2017-Sep-12 18:00N 48°23' W 004°29'3 6.6
2017-Sep-12 17:30N 48°21' W 004°33'815.3
2017-Sep-12 17:00N 48°19' W 004°44'3 5.4
2017-Sep-12 16:30N 48°22' W 004°47'5 9.1
2017-Sep-12 16:00N 48°24' W 004°52'3 6.5
2017-Sep-12 15:30N 48°24' W 004°57'510.9
2017-Sep-12 15:00N 48°28' W 005°03'0 0.0
2017-Sep-12 14:30N 48°28' W 005°03'0 0.0
2017-Sep-12 14:00N 48°28' W 005°03'0 0.0
2017-Sep-12 13:30N 48°28' W 005°03'0 0.0
2017-Sep-12 13:00N 48°28' W 005°03'0 0.0
2017-Sep-12 12:30N 48°28' W 005°03'0 0.0
2017-Sep-12 12:00N 48°28' W 005°03'510.9
2017-Sep-12 11:30N 48°25' W 004°57'2 3.6
2017-Sep-12 11:01N 48°24' W 004°54'611.4
2017-Sep-12 10:30N 48°22' W 004°47'2 3.0
2017-Sep-12 10:00N 48°20' W 004°47'613.0
2017-Sep-12 09:31N 48°20' W 004°37'612.5
2017-Sep-12 09:01N 48°23' W 004°29'0 0.0
2017-Sep-12 08:31N 48°23' W 004°29'0 0.0
2017-Sep-12 08:00N 48°23' W 004°29'0 0.0
2017-Sep-12 07:30N 48°23' W 004°29'0 0.0
2017-Sep-12 07:00N 48°23' W 004°29'0 0.0
2017-Sep-11 17:35N 48°23' W 004°29'1 6.3
2017-Sep-11 17:30N 48°22' W 004°29'815.7
2017-Sep-11 17:00N 48°20' W 004°40'5 6.8
2017-Sep-11 16:20N 48°22' W 004°47'310.7
2017-Sep-11 16:00N 48°24' W 004°51'5 9.1
2017-Sep-11 15:30N 48°24' W 004°57'6 5.0
2017-Sep-11 14:23N 48°28' W 005°03'512.5
2017-Sep-11 14:00N 48°27' W 004°56'713.9
2017-Sep-11 13:30N 48°22' W 004°49'1 2.6
2017-Sep-11 13:00N 48°21' W 004°48'713.4
2017-Sep-11 12:30N 48°25' W 004°56'6 7.0
2017-Sep-11 11:42N 48°28' W 005°03'0 0.0
2017-Sep-11 11:21N 48°28' W 005°03'411.8
2017-Sep-11 11:00N 48°26' W 004°58'2 4.1
2017-Sep-11 10:30N 48°25' W 004°56'612.2
2017-Sep-11 10:00N 48°22' W 004°48'2 3.4
2017-Sep-11 09:31N 48°20' W 004°47'613.0
2017-Sep-11 09:01N 48°20' W 004°37'610.2
2017-Sep-11 08:24N 48°23' W 004°29'0 0.0
2017-Sep-11 07:59N 48°23' W 004°29'0 0.0
2017-Sep-11 07:30N 48°23' W 004°29'0 0.0
2017-Sep-11 06:58N 48°23' W 004°29'0 0.0
2017-Sep-11 06:31N 48°23' W 004°29'0 0.0
2017-Sep-11 05:59N 48°23' W 004°29'0 0.0
2017-Sep-11 05:30N 48°23' W 004°29'0 0.0
2017-Sep-11 05:00N 48°23' W 004°29'0 0.0
2017-Sep-11 04:30N 48°23' W 004°29'0 0.0
2017-Sep-11 03:56N 48°23' W 004°29'0 0.0
2017-Sep-11 03:29N 48°23' W 004°29'0 0.0
2017-Sep-11 03:00N 48°23' W 004°29'0 0.0
2017-Sep-11 02:29N 48°23' W 004°29'0 0.0
2017-Sep-11 02:00N 48°23' W 004°29'0 0.0
2017-Sep-11 01:31N 48°23' W 004°29'0 0.0
2017-Sep-11 00:59N 48°23' W 004°29'0 0.0
2017-Sep-11 00:30N 48°23' W 004°29'0 0.0
2017-Sep-11 00:00N 48°23' W 004°29'0 0.0
2017-Sep-10 23:30N 48°23' W 004°29'0 0.0
2017-Sep-10 23:00N 48°23' W 004°29'0 0.0
2017-Sep-10 22:30N 48°23' W 004°29'0 0.0
2017-Sep-10 21:59N 48°23' W 004°29'0 0.0
2017-Sep-10 21:28N 48°23' W 004°29'  

Dump ship's entire track history